createdAt,value
2022-07-25T00:01:47.376Z,51.20
2022-07-25T00:04:14.769Z,51.10
2022-07-25T00:06:42.628Z,50.30
2022-07-25T00:09:09.971Z,51.10
2022-07-25T00:11:37.325Z,51.10
2022-07-25T00:14:04.985Z,51.10
2022-07-25T00:16:32.176Z,51.10
2022-07-25T00:18:58.942Z,50.80
2022-07-25T00:21:25.928Z,51.00
2022-07-25T00:23:52.754Z,51.20
2022-07-25T00:26:19.721Z,51.30
2022-07-25T00:28:46.428Z,51.10
2022-07-25T00:31:13.232Z,52.00
2022-07-25T00:33:40.351Z,51.10
2022-07-25T00:36:10.130Z,51.00
2022-07-25T00:38:37.033Z,51.50
2022-07-25T00:41:04.876Z,51.30
2022-07-25T00:43:32.110Z,51.70
2022-07-25T00:45:59.374Z,51.30
2022-07-25T00:48:27.867Z,51.80
2022-07-25T00:50:55.705Z,52.20
2022-07-25T00:53:22.908Z,52.00
2022-07-25T00:55:49.709Z,52.10
2022-07-25T00:58:16.615Z,51.80
2022-07-25T01:00:43.403Z,51.50
2022-07-25T01:03:10.791Z,51.80
2022-07-25T01:05:37.573Z,51.80
2022-07-25T01:08:04.785Z,51.90
2022-07-25T01:10:33.366Z,51.40
2022-07-25T01:13:00.284Z,52.10
2022-07-25T01:15:27.818Z,52.20
2022-07-25T01:17:54.934Z,52.10
2022-07-25T01:20:26.987Z,52.10
2022-07-25T01:22:54.191Z,51.70
2022-07-25T01:25:21.346Z,51.60
2022-07-25T01:27:54.787Z,51.90
2022-07-25T01:30:24.029Z,52.00
2022-07-25T01:32:51.556Z,52.10
2022-07-25T01:35:18.450Z,52.00
2022-07-25T01:37:45.969Z,52.20
2022-07-25T01:40:14.402Z,52.40
2022-07-25T01:42:41.553Z,52.50
2022-07-25T01:45:09.150Z,52.30
2022-07-25T01:47:35.995Z,52.50
2022-07-25T01:50:02.923Z,52.80
2022-07-25T01:52:31.834Z,52.80
2022-07-25T01:54:58.617Z,52.60
2022-07-25T01:57:30.124Z,53.10
2022-07-25T01:59:57.631Z,52.90
2022-07-25T02:02:24.472Z,53.10
2022-07-25T02:04:51.300Z,52.90
2022-07-25T02:07:18.150Z,53.10
2022-07-25T02:09:44.897Z,53.10
2022-07-25T02:12:11.700Z,53.20
2022-07-25T02:14:38.532Z,53.20
2022-07-25T02:17:05.365Z,53.40
2022-07-25T02:19:32.325Z,53.40
2022-07-25T02:21:59.152Z,53.30
2022-07-25T02:24:26.041Z,53.30
2022-07-25T02:26:52.745Z,53.50
2022-07-25T02:29:21.885Z,53.40
2022-07-25T02:31:49.489Z,53.50
2022-07-25T02:34:16.194Z,53.60
2022-07-25T02:36:43.349Z,53.50
2022-07-25T02:39:10.156Z,53.60
2022-07-25T02:41:36.934Z,53.70
2022-07-25T02:44:05.199Z,53.80
2022-07-25T02:46:32.661Z,54.00
2022-07-25T02:48:59.690Z,53.80
2022-07-25T02:51:26.503Z,53.80
2022-07-25T02:54:09.058Z,53.70
2022-07-25T02:56:35.825Z,53.80
2022-07-25T02:59:02.602Z,53.90
2022-07-25T03:01:29.540Z,54.00
2022-07-25T03:03:56.551Z,54.10
2022-07-25T03:06:23.319Z,54.00
2022-07-25T03:08:50.037Z,54.00
2022-07-25T03:11:16.898Z,53.90
2022-07-25T03:13:43.961Z,54.00
2022-07-25T03:16:11.102Z,53.80
2022-07-25T03:18:38.109Z,53.90
2022-07-25T03:21:05.335Z,54.00
2022-07-25T03:23:32.053Z,53.90
2022-07-25T03:25:58.955Z,53.90
2022-07-25T03:28:25.989Z,54.00
2022-07-25T03:30:53.357Z,54.00
2022-07-25T03:33:20.147Z,54.10
2022-07-25T03:35:47.171Z,53.90
2022-07-25T03:38:13.846Z,53.90
2022-07-25T03:40:40.824Z,53.80
2022-07-25T03:43:07.522Z,53.90
2022-07-25T03:45:34.463Z,53.90
2022-07-25T03:48:02.528Z,53.80
2022-07-25T03:50:29.509Z,53.80
2022-07-25T03:52:56.294Z,53.80
2022-07-25T03:55:23.081Z,53.70
2022-07-25T03:57:50.666Z,53.80
2022-07-25T04:00:17.894Z,53.50
2022-07-25T04:02:45.764Z,53.60
2022-07-25T04:05:12.573Z,53.60
2022-07-25T04:07:39.511Z,53.10
2022-07-25T04:10:07.633Z,53.60
2022-07-25T04:12:34.745Z,53.80
2022-07-25T04:15:01.744Z,53.60
2022-07-25T04:17:28.514Z,52.80
2022-07-25T04:19:55.889Z,53.10
2022-07-25T04:22:25.807Z,53.10
2022-07-25T04:24:52.799Z,52.90
2022-07-25T04:27:19.567Z,52.90
2022-07-25T04:29:46.342Z,53.10
2022-07-25T04:32:13.783Z,52.90
2022-07-25T04:34:40.919Z,52.60
2022-07-25T04:37:07.673Z,52.70
2022-07-25T04:39:34.396Z,52.70
2022-07-25T04:42:01.572Z,52.90
2022-07-25T04:44:28.457Z,52.80
2022-07-25T04:46:55.233Z,52.80
2022-07-25T04:49:22.050Z,52.70
2022-07-25T04:51:48.937Z,52.70
2022-07-25T04:54:15.648Z,53.00
2022-07-25T04:56:42.489Z,53.00
2022-07-25T04:59:09.267Z,53.10
2022-07-25T05:01:36.023Z,53.20
2022-07-25T05:04:02.923Z,53.40
2022-07-25T05:06:29.903Z,53.20
2022-07-25T05:08:56.620Z,53.40
2022-07-25T05:11:23.399Z,53.40
2022-07-25T05:13:50.205Z,53.50
2022-07-25T05:16:17.065Z,53.70
2022-07-25T05:18:43.819Z,54.10
2022-07-25T05:21:12.463Z,53.80
2022-07-25T05:23:39.585Z,53.80
2022-07-25T05:26:06.508Z,53.80
2022-07-25T05:28:33.378Z,54.10
2022-07-25T05:31:00.306Z,54.10
2022-07-25T05:33:27.144Z,54.10
2022-07-25T05:35:53.922Z,54.20
2022-07-25T05:38:21.174Z,54.30
2022-07-25T05:40:48.252Z,54.70
2022-07-25T05:43:14.964Z,54.50
2022-07-25T05:45:41.755Z,54.90
2022-07-25T05:48:08.560Z,54.80
2022-07-25T05:50:37.262Z,55.00
2022-07-25T05:53:04.074Z,55.00
2022-07-25T05:55:30.897Z,55.10
2022-07-25T05:57:57.891Z,55.10
2022-07-25T06:00:25.510Z,55.40
2022-07-25T06:02:52.396Z,55.40
2022-07-25T06:05:19.156Z,55.50
2022-07-25T06:07:45.888Z,55.20
2022-07-25T06:10:12.590Z,56.00
2022-07-25T06:12:39.325Z,55.40
2022-07-25T06:15:07.968Z,55.20
2022-07-25T06:17:39.399Z,54.70
2022-07-25T06:20:06.627Z,54.80
2022-07-25T06:22:33.360Z,55.10
2022-07-25T06:25:02.524Z,55.00
2022-07-25T06:27:29.647Z,54.80
2022-07-25T06:29:56.677Z,54.70
2022-07-25T06:32:23.440Z,54.20
2022-07-25T06:34:50.414Z,53.10
2022-07-25T06:37:17.281Z,52.70
2022-07-25T06:39:45.916Z,53.10
2022-07-25T06:42:13.082Z,52.40
2022-07-25T06:44:40.223Z,52.90
2022-07-25T06:47:12.509Z,52.50
2022-07-25T06:49:40.682Z,52.40
2022-07-25T06:52:07.459Z,51.40
2022-07-25T06:54:34.561Z,52.40
2022-07-25T06:57:01.348Z,50.60
2022-07-25T06:59:28.173Z,49.70
2022-07-25T07:01:54.936Z,49.50
2022-07-25T07:04:21.791Z,50.00
2022-07-25T07:06:48.636Z,49.80
2022-07-25T07:09:15.440Z,49.70
2022-07-25T07:11:42.225Z,50.10
2022-07-25T07:14:11.812Z,50.40
2022-07-25T07:16:42.403Z,50.60
2022-07-25T07:19:11.111Z,50.80
2022-07-25T07:21:38.175Z,50.80
2022-07-25T07:24:05.525Z,51.00
2022-07-25T07:26:50.808Z,51.20
2022-07-25T07:29:17.627Z,51.30
2022-07-25T07:31:44.498Z,51.40
2022-07-25T07:34:11.453Z,51.60
2022-07-25T07:36:42.943Z,52.00
2022-07-25T07:39:09.873Z,52.80
2022-07-25T07:41:36.856Z,54.30
2022-07-25T07:44:04.923Z,54.10
2022-07-25T07:46:31.848Z,54.20
2022-07-25T07:48:59.706Z,54.60
2022-07-25T07:51:26.620Z,54.30
2022-07-25T07:54:14.007Z,54.30
2022-07-25T07:56:41.924Z,54.60
2022-07-25T07:59:08.915Z,54.70
2022-07-25T08:01:35.980Z,54.90
2022-07-25T08:04:02.819Z,55.00
2022-07-25T08:06:29.783Z,55.10
2022-07-25T08:08:56.543Z,55.00
2022-07-25T08:11:23.467Z,55.60
2022-07-25T08:13:50.306Z,55.80
2022-07-25T08:16:17.236Z,56.00
2022-07-25T08:18:44.285Z,55.40
2022-07-25T08:21:11.846Z,55.60
2022-07-25T08:23:39.051Z,55.70
2022-07-25T08:26:06.738Z,56.10
2022-07-25T08:28:33.483Z,56.30
2022-07-25T08:31:00.434Z,57.00
2022-07-25T08:33:27.631Z,56.70
2022-07-25T08:35:56.030Z,57.40
2022-07-25T08:38:24.722Z,57.00
2022-07-25T08:40:52.026Z,56.70
2022-07-25T08:43:19.424Z,56.50
2022-07-25T08:45:53.983Z,56.70
2022-07-25T08:48:32.942Z,56.70
2022-07-25T08:51:00.388Z,57.50
2022-07-25T08:53:33.091Z,56.80
2022-07-25T08:56:05.347Z,56.10
2022-07-25T08:58:34.963Z,56.50
2022-07-25T09:01:02.264Z,56.90
2022-07-25T09:03:29.079Z,56.50
2022-07-25T09:05:55.913Z,56.40
2022-07-25T09:08:22.771Z,56.20
2022-07-25T09:10:51.860Z,56.80
2022-07-25T09:13:20.415Z,56.40
2022-07-25T09:15:52.487Z,56.60
2022-07-25T09:18:23.973Z,56.40
2022-07-25T09:20:59.115Z,56.00
2022-07-25T09:23:37.369Z,55.70
2022-07-25T09:26:08.848Z,55.60
2022-07-25T09:28:47.215Z,55.60
2022-07-25T09:31:17.464Z,55.90
2022-07-25T09:33:55.236Z,55.90
2022-07-25T09:36:22.852Z,55.60
2022-07-25T09:38:57.621Z,55.10
2022-07-25T09:41:41.269Z,56.00
2022-07-25T09:44:39.546Z,55.00
2022-07-25T09:47:17.185Z,54.50
2022-07-25T09:49:45.309Z,54.70
2022-07-25T09:52:16.733Z,54.40
2022-07-25T09:54:44.014Z,54.50
2022-07-25T09:57:10.790Z,54.60
2022-07-25T09:59:38.103Z,54.30
2022-07-25T10:02:07.872Z,54.10
2022-07-25T10:04:59.811Z,54.00
2022-07-25T10:07:31.262Z,54.50
2022-07-25T10:10:00.211Z,53.90
2022-07-25T10:12:27.025Z,54.10
2022-07-25T10:15:13.265Z,53.70
2022-07-25T10:17:41.368Z,53.60
2022-07-25T10:20:10.319Z,53.40
2022-07-25T10:22:58.087Z,53.50
2022-07-25T10:25:25.571Z,52.80
2022-07-25T10:28:06.556Z,52.60
2022-07-25T10:30:38.488Z,52.70
2022-07-25T10:33:12.386Z,53.00
2022-07-25T10:35:39.756Z,53.00
2022-07-25T10:38:06.971Z,53.30
2022-07-25T10:40:34.967Z,53.80
2022-07-25T10:43:14.915Z,53.80
2022-07-25T10:45:49.780Z,53.50
2022-07-25T10:48:27.966Z,53.40
2022-07-25T10:51:09.641Z,53.50
2022-07-25T10:53:40.679Z,53.60
2022-07-25T10:56:13.209Z,53.60
2022-07-25T10:58:54.838Z,53.50
2022-07-25T11:01:26.545Z,53.60
2022-07-25T11:03:55.717Z,53.10
2022-07-25T11:06:37.503Z,52.10
2022-07-25T11:09:18.094Z,52.00
2022-07-25T11:11:50.304Z,51.90
2022-07-25T11:14:38.137Z,51.20
2022-07-25T11:17:14.747Z,51.80
2022-07-25T11:19:53.347Z,52.10
2022-07-25T11:22:20.187Z,52.40
2022-07-25T11:24:47.732Z,51.40
2022-07-25T11:27:24.599Z,51.60
2022-07-25T11:29:51.876Z,52.40
2022-07-25T11:32:19.462Z,51.90
2022-07-25T11:34:52.470Z,51.10
2022-07-25T11:37:24.530Z,51.30
2022-07-25T11:39:52.911Z,51.50
2022-07-25T11:42:20.531Z,51.90
2022-07-25T11:44:51.863Z,52.00
2022-07-25T11:47:32.708Z,51.80
2022-07-25T11:50:04.739Z,51.90
2022-07-25T11:52:38.569Z,52.20
2022-07-25T11:55:11.626Z,52.00
2022-07-25T11:57:44.541Z,52.70
2022-07-25T12:00:17.341Z,52.70
2022-07-25T12:02:45.073Z,52.60
2022-07-25T12:05:18.160Z,52.60
2022-07-25T12:07:48.878Z,52.70
2022-07-25T12:10:21.785Z,52.30
2022-07-25T12:12:54.804Z,52.40
2022-07-25T12:15:27.778Z,52.00
2022-07-25T12:17:56.141Z,52.00
2022-07-25T12:20:43.420Z,52.30
2022-07-25T12:23:12.730Z,52.20
2022-07-25T12:25:44.525Z,52.20
2022-07-25T12:28:12.007Z,52.10
2022-07-25T12:30:40.423Z,51.90
2022-07-25T12:33:07.771Z,52.20
2022-07-25T12:35:34.683Z,51.50
2022-07-25T12:38:01.526Z,51.30
2022-07-25T12:40:28.479Z,50.40
2022-07-25T12:42:55.452Z,50.90
2022-07-25T12:45:24.305Z,51.10
2022-07-25T12:47:51.128Z,50.60
2022-07-25T12:50:18.538Z,50.40
2022-07-25T12:52:45.908Z,49.90
2022-07-25T12:55:16.629Z,49.30
2022-07-25T12:57:44.127Z,48.90
2022-07-25T13:00:17.308Z,49.00
2022-07-25T13:02:44.310Z,48.20
2022-07-25T13:05:11.410Z,48.10
2022-07-25T13:07:38.357Z,47.70
2022-07-25T13:10:06.588Z,46.90
2022-07-25T13:12:33.288Z,47.00
2022-07-25T13:15:00.489Z,48.60
2022-07-25T13:17:28.020Z,46.70
2022-07-25T13:19:55.698Z,46.30
2022-07-25T13:22:22.537Z,46.80
2022-07-25T13:24:49.344Z,47.40
2022-07-25T13:27:18.833Z,46.50
2022-07-25T13:29:45.694Z,46.50
2022-07-25T13:32:12.769Z,46.50
2022-07-25T13:34:39.657Z,46.10
2022-07-25T13:37:06.417Z,46.10
2022-07-25T13:39:33.748Z,45.80
2022-07-25T13:42:00.635Z,46.00
2022-07-25T13:44:27.408Z,46.00
2022-07-25T13:46:54.229Z,45.80
2022-07-25T13:49:21.131Z,46.30
2022-07-25T13:51:48.079Z,45.00
2022-07-25T13:54:15.012Z,45.70
2022-07-25T13:56:42.544Z,45.30
2022-07-25T13:59:12.451Z,44.60
2022-07-25T14:01:46.049Z,44.80
2022-07-25T14:04:13.262Z,44.90
2022-07-25T14:06:42.363Z,45.20
2022-07-25T14:09:10.637Z,45.20
2022-07-25T14:11:37.750Z,45.60
2022-07-25T14:14:04.574Z,45.60
2022-07-25T14:16:34.014Z,45.30
2022-07-25T14:19:02.212Z,45.60
2022-07-25T14:21:29.353Z,45.50
2022-07-25T14:23:56.241Z,46.50
2022-07-25T14:26:28.837Z,45.90
2022-07-25T14:28:56.498Z,45.60
2022-07-25T14:31:23.709Z,44.70
2022-07-25T14:33:50.571Z,44.00
2022-07-25T14:36:17.408Z,44.30
2022-07-25T14:38:47.255Z,43.00
2022-07-25T14:41:15.009Z,43.40
2022-07-25T14:43:41.978Z,43.20
2022-07-25T14:46:09.289Z,43.40
2022-07-25T14:48:37.739Z,43.80
2022-07-25T14:51:05.575Z,42.40
2022-07-25T14:53:32.611Z,42.40
2022-07-25T14:56:00.876Z,42.50
2022-07-25T14:58:27.742Z,43.20
2022-07-25T15:00:54.761Z,43.20
2022-07-25T15:03:21.727Z,42.80
2022-07-25T15:05:48.544Z,42.30
2022-07-25T15:08:16.376Z,42.80
2022-07-25T15:10:43.207Z,43.30
2022-07-25T15:15:57.703Z,44.00
2022-07-25T15:18:27.922Z,43.90
2022-07-25T15:20:55.457Z,43.30
2022-07-25T15:23:24.876Z,42.20
2022-07-25T15:26:08.090Z,42.30
2022-07-25T15:28:37.236Z,42.20
2022-07-25T15:31:04.999Z,42.10
2022-07-25T15:33:32.146Z,42.50
2022-07-25T15:35:58.974Z,42.80
2022-07-25T15:38:26.635Z,43.20
2022-07-25T15:40:53.402Z,43.70
2022-07-25T15:43:20.573Z,43.30
2022-07-25T15:45:47.517Z,43.10
2022-07-25T15:48:16.804Z,43.30
2022-07-25T15:50:45.969Z,43.90
2022-07-25T15:53:13.092Z,43.60
2022-07-25T15:55:41.253Z,43.80
2022-07-25T15:58:09.532Z,43.30
2022-07-25T16:00:37.337Z,45.20
2022-07-25T16:03:04.712Z,43.60
2022-07-25T16:05:31.639Z,43.50
2022-07-25T16:08:00.979Z,43.80
2022-07-25T16:10:29.421Z,44.10
2022-07-25T16:12:56.223Z,44.20
2022-07-25T16:15:23.016Z,43.70
2022-07-25T16:17:50.692Z,43.90
2022-07-25T16:20:17.848Z,44.20
2022-07-25T16:22:45.411Z,44.40
2022-07-25T16:25:12.489Z,44.40
2022-07-25T16:27:39.320Z,45.10
2022-07-25T16:30:06.786Z,45.20
2022-07-25T16:32:33.780Z,45.60
2022-07-25T16:35:00.489Z,45.70
2022-07-25T16:37:27.323Z,45.90
2022-07-25T16:39:54.005Z,46.20
2022-07-25T16:42:20.770Z,46.10
2022-07-25T16:44:48.569Z,46.30
2022-07-25T16:47:16.402Z,46.70
2022-07-25T16:49:43.104Z,47.20
2022-07-25T16:52:09.857Z,47.20
2022-07-25T16:54:36.541Z,47.10
2022-07-25T16:57:03.629Z,47.10
2022-07-25T16:59:30.400Z,47.10
2022-07-25T17:01:57.244Z,47.10
2022-07-25T17:04:24.064Z,47.50
2022-07-25T17:06:51.050Z,47.50
2022-07-25T17:09:17.875Z,47.10
2022-07-25T17:11:44.627Z,47.30
2022-07-25T17:14:11.700Z,47.50
2022-07-25T17:16:40.384Z,47.70
2022-07-25T17:19:07.494Z,47.10
2022-07-25T17:21:34.595Z,46.60
2022-07-25T17:24:01.432Z,46.50
2022-07-25T17:26:28.242Z,46.90
2022-07-25T17:28:55.505Z,47.10
2022-07-25T17:31:24.380Z,47.20
2022-07-25T17:33:51.342Z,47.60
2022-07-25T17:36:18.876Z,47.90
2022-07-25T17:38:45.636Z,48.10
2022-07-25T17:41:12.379Z,48.40
2022-07-25T17:43:39.129Z,48.50
2022-07-25T17:46:06.204Z,48.50
2022-07-25T17:48:33.789Z,48.50
2022-07-25T17:51:00.572Z,48.50
2022-07-25T17:53:28.406Z,48.50
2022-07-25T17:55:55.230Z,48.50
2022-07-25T17:58:23.387Z,48.90
2022-07-25T18:00:50.415Z,48.90
2022-07-25T18:03:18.901Z,48.90
2022-07-25T18:05:45.730Z,48.90
2022-07-25T18:08:12.431Z,49.00
2022-07-25T18:10:39.212Z,48.90
2022-07-25T18:13:05.980Z,49.00
2022-07-25T18:15:32.808Z,48.90
2022-07-25T18:17:59.689Z,49.00
2022-07-25T18:20:28.075Z,48.50
2022-07-25T18:22:54.919Z,48.40
2022-07-25T18:25:21.627Z,48.30
2022-07-25T18:27:48.782Z,48.40
2022-07-25T18:30:16.837Z,48.60
2022-07-25T18:32:43.601Z,48.60
2022-07-25T18:35:11.263Z,48.60
2022-07-25T18:37:38.329Z,48.30
2022-07-25T18:40:07.621Z,48.40
2022-07-25T18:42:35.010Z,48.30
2022-07-25T18:45:02.443Z,49.00
2022-07-25T18:47:32.127Z,48.40
2022-07-25T18:49:59.517Z,48.50
2022-07-25T18:52:26.518Z,48.70
2022-07-25T18:54:53.506Z,48.80
2022-07-25T18:57:20.359Z,49.00
2022-07-25T18:59:48.019Z,49.30
2022-07-25T19:02:14.858Z,49.20
2022-07-25T19:04:42.378Z,49.30
2022-07-25T19:07:09.355Z,49.60
2022-07-25T19:09:36.247Z,49.50
2022-07-25T19:12:04.285Z,49.50
2022-07-25T19:14:31.071Z,49.60
2022-07-25T19:16:58.864Z,49.60
2022-07-25T19:19:26.940Z,49.50
2022-07-25T19:21:54.164Z,49.70
2022-07-25T19:24:21.366Z,49.80
2022-07-25T19:26:49.766Z,49.80
2022-07-25T19:29:17.021Z,49.80
2022-07-25T19:31:44.114Z,49.90
2022-07-25T19:34:11.718Z,50.10
2022-07-25T19:36:38.862Z,50.10
2022-07-25T19:39:06.437Z,50.20
2022-07-25T19:41:33.620Z,50.30
2022-07-25T19:44:00.456Z,50.50
2022-07-25T19:46:31.147Z,50.60
2022-07-25T19:48:58.430Z,50.70
2022-07-25T19:51:25.470Z,50.70
2022-07-25T19:53:52.321Z,50.80
2022-07-25T19:56:19.549Z,51.00
2022-07-25T19:58:47.404Z,51.00
2022-07-25T20:01:14.479Z,50.90
2022-07-25T20:03:42.964Z,50.90
2022-07-25T20:06:09.935Z,50.90
2022-07-25T20:08:39.455Z,51.10
2022-07-25T20:11:07.683Z,51.20
2022-07-25T20:13:35.513Z,51.30
2022-07-25T20:16:03.932Z,51.50
2022-07-25T20:18:30.856Z,51.40
2022-07-25T20:20:57.905Z,51.50
2022-07-25T20:23:25.845Z,51.60
2022-07-25T20:25:53.029Z,51.60
2022-07-25T20:28:20.269Z,51.80
2022-07-25T20:30:47.122Z,52.60
2022-07-25T20:33:14.026Z,52.00
2022-07-25T20:35:40.842Z,52.10
2022-07-25T20:38:09.998Z,52.30
2022-07-25T20:40:46.431Z,52.60
2022-07-25T20:43:15.265Z,52.60
2022-07-25T20:45:42.302Z,52.30
2022-07-25T20:48:09.345Z,52.90
2022-07-25T20:50:37.652Z,53.20
2022-07-25T20:53:04.805Z,53.30
2022-07-25T20:55:31.740Z,52.90
2022-07-25T20:57:59.544Z,53.40
2022-07-25T21:00:27.713Z,53.60
2022-07-25T21:02:55.303Z,53.80
2022-07-25T21:05:22.428Z,53.90
2022-07-25T21:07:49.398Z,54.00
2022-07-25T21:10:16.837Z,54.00
2022-07-25T21:12:45.259Z,54.10
2022-07-25T21:15:13.143Z,54.20
2022-07-25T21:17:41.630Z,54.20
2022-07-25T21:20:13.614Z,54.20
2022-07-25T21:22:40.919Z,54.40
2022-07-25T21:25:08.170Z,54.40
2022-07-25T21:27:37.210Z,54.40
2022-07-25T21:30:06.195Z,54.50
2022-07-25T21:32:34.241Z,54.60
2022-07-25T21:35:01.027Z,54.80
2022-07-25T21:37:27.778Z,55.00
2022-07-25T21:39:54.491Z,55.10
2022-07-25T21:47:15.723Z,55.30
2022-07-25T21:50:01.081Z,55.50
2022-07-25T21:52:30.098Z,55.70
2022-07-25T21:55:01.711Z,55.80
2022-07-25T21:57:28.487Z,55.80
2022-07-25T21:59:55.584Z,56.00
2022-07-25T22:02:25.657Z,56.00
2022-07-25T22:04:52.693Z,56.10
2022-07-25T22:07:19.703Z,56.20
2022-07-25T22:09:46.606Z,56.10
2022-07-25T22:12:14.811Z,56.20
2022-07-25T22:14:41.629Z,56.40
2022-07-25T22:17:09.212Z,56.40
2022-07-25T22:19:36.117Z,56.50
2022-07-25T22:22:05.756Z,56.50
2022-07-25T22:24:33.054Z,56.70
2022-07-25T22:26:59.972Z,56.80
2022-07-25T22:29:26.738Z,56.90
2022-07-25T22:31:53.495Z,57.10
2022-07-25T22:34:20.269Z,57.30
2022-07-25T22:36:47.072Z,57.40
2022-07-25T22:39:13.853Z,57.50
2022-07-25T22:41:40.554Z,57.60
2022-07-25T22:44:07.366Z,57.80
2022-07-25T22:46:34.639Z,57.90
2022-07-25T22:49:01.841Z,57.90
2022-07-25T22:51:29.610Z,58.60
2022-07-25T22:53:57.993Z,58.10
2022-07-25T22:56:25.349Z,58.20
2022-07-25T22:58:52.092Z,58.40
2022-07-25T23:01:19.195Z,58.50
2022-07-25T23:03:48.477Z,58.50
2022-07-25T23:06:15.655Z,58.70
2022-07-25T23:08:42.783Z,58.80
2022-07-25T23:11:09.594Z,58.80
2022-07-25T23:13:36.642Z,58.90
2022-07-25T23:16:04.648Z,59.00
2022-07-25T23:18:31.854Z,59.10
2022-07-25T23:20:59.119Z,59.10
2022-07-25T23:23:26.047Z,59.30
2022-07-25T23:25:52.816Z,59.40
2022-07-25T23:28:19.604Z,59.40
2022-07-25T23:30:46.373Z,60.00
2022-07-25T23:33:13.103Z,59.50
2022-07-25T23:35:39.908Z,59.60
2022-07-25T23:38:06.644Z,59.60
2022-07-25T23:40:33.522Z,59.60
2022-07-25T23:43:00.295Z,59.60
2022-07-25T23:45:28.160Z,59.60
2022-07-25T23:47:55.919Z,59.60
2022-07-25T23:50:23.352Z,59.20
2022-07-25T23:52:53.459Z,59.60
2022-07-25T23:55:20.381Z,59.70
2022-07-25T23:57:47.115Z,59.70
